TimeEDT,TemperatureF,Dew PointF,Humidity,Sea Level PressureIn,VisibilityMPH,Wind Direction,Wind SpeedMPH,Gust SpeedMPH,PrecipitationIn,Events,Conditions,WindDirDegrees,DateUTC
12:15 AM,60.8,55.4,82,30.20,10.0,Calm,Calm,-,N/A,,Clear,0,2013-08-24 04:15:00
12:35 AM,60.8,55.4,82,30.20,10.0,Calm,Calm,-,N/A,,Clear,0,2013-08-24 04:35:00
12:55 AM,59.0,55.4,88,30.20,10.0,Calm,Calm,-,N/A,,Clear,0,2013-08-24 04:55:00
1:15 AM,59.0,55.4,88,30.21,10.0,Calm,Calm,-,N/A,,Clear,0,2013-08-24 05:15:00
1:35 AM,59.0,55.4,88,30.20,10.0,Calm,Calm,-,N/A,,Clear,0,2013-08-24 05:35:00
1:55 AM,57.2,55.4,94,30.21,10.0,Calm,Calm,-,N/A,,Clear,0,2013-08-24 05:55:00
2:15 AM,55.4,55.4,100,30.21,10.0,Calm,Calm,-,N/A,,Clear,0,2013-08-24 06:15:00
2:35 AM,55.4,55.4,100,30.22,10.0,Calm,Calm,-,N/A,,Clear,0,2013-08-24 06:35:00
2:55 AM,55.4,53.6,94,30.22,10.0,Calm,Calm,-,N/A,,Clear,0,2013-08-24 06:55:00
3:15 AM,55.4,53.6,94,30.22,10.0,Calm,Calm,-,N/A,,Clear,0,2013-08-24 07:15:00
3:35 AM,55.4,53.6,94,30.22,10.0,Calm,Calm,-,N/A,,Clear,0,2013-08-24 07:35:00
3:55 AM,55.4,53.6,94,30.22,10.0,Calm,Calm,-,N/A,,Clear,0,2013-08-24 07:55:00
4:15 AM,55.4,53.6,94,30.23,10.0,Calm,Calm,-,N/A,,Clear,0,2013-08-24 08:15:00
4:35 AM,55.4,53.6,94,30.23,10.0,Calm,Calm,-,N/A,,Clear,0,2013-08-24 08:35:00
4:55 AM,53.6,53.6,100,30.24,10.0,Calm,Calm,-,N/A,,Clear,0,2013-08-24 08:55:00
5:15 AM,53.6,53.6,100,30.24,10.0,Calm,Calm,-,N/A,,Clear,0,2013-08-24 09:15:00
5:35 AM,53.6,53.6,100,30.25,10.0,Calm,Calm,-,N/A,,Clear,0,2013-08-24 09:35:00
5:55 AM,53.6,53.6,100,30.25,10.0,Calm,Calm,-,N/A,,Clear,0,2013-08-24 09:55:00
6:15 AM,53.6,53.6,100,30.26,10.0,Calm,Calm,-,N/A,,Clear,0,2013-08-24 10:15:00
6:35 AM,53.6,53.6,100,30.27,10.0,Calm,Calm,-,N/A,,Clear,0,2013-08-24 10:35:00
6:55 AM,53.6,51.8,94,30.28,10.0,Calm,Calm,-,N/A,,Clear,0,2013-08-24 10:55:00
7:15 AM,53.6,51.8,94,30.28,10.0,Calm,Calm,-,N/A,,Clear,0,2013-08-24 11:15:00
7:35 AM,53.6,53.6,100,30.29,10.0,East,3.5,-,N/A,,Clear,80,2013-08-24 11:35:00
7:55 AM,55.4,53.6,94,30.30,10.0,Calm,Calm,-,N/A,,Clear,0,2013-08-24 11:55:00
8:15 AM,59.0,55.4,88,30.30,10.0,Calm,Calm,-,N/A,,Clear,0,2013-08-24 12:15:00
8:35 AM,60.8,55.4,82,30.30,10.0,Calm,Calm,-,N/A,,Clear,0,2013-08-24 12:35:00
8:55 AM,62.6,55.4,77,30.31,10.0,East,8.1,-,N/A,,Clear,100,2013-08-24 12:55:00
9:15 AM,64.4,55.4,73,30.32,10.0,East,3.5,-,N/A,,Clear,100,2013-08-24 13:15:00
9:35 AM,68.0,55.4,64,30.32,10.0,ESE,4.6,-,N/A,,Clear,110,2013-08-24 13:35:00
9:55 AM,68.0,55.4,64,30.32,10.0,ESE,4.6,-,N/A,,Clear,120,2013-08-24 13:55:00
10:15 AM,69.8,55.4,60,30.32,10.0,SE,6.9,-,N/A,,Clear,130,2013-08-24 14:15:00
10:35 AM,71.6,55.4,57,30.32,10.0,ESE,6.9,-,N/A,,Clear,110,2013-08-24 14:35:00
10:55 AM,73.4,53.6,50,30.32,10.0,ESE,6.9,-,N/A,,Clear,110,2013-08-24 14:55:00
11:15 AM,73.4,53.6,50,30.32,10.0,ESE,9.2,-,N/A,,Clear,110,2013-08-24 15:15:00
11:35 AM,75.2,53.6,47,30.32,10.0,ESE,6.9,-,N/A,,Clear,110,2013-08-24 15:35:00
11:55 AM,77.0,53.6,44,30.31,10.0,ESE,10.4,-,N/A,,Clear,110,2013-08-24 15:55:00
12:15 PM,77.0,53.6,44,30.31,10.0,SE,9.2,-,N/A,,Clear,140,2013-08-24 16:15:00
12:35 PM,78.8,55.4,44,30.30,10.0,ESE,10.4,-,N/A,,Clear,110,2013-08-24 16:35:00
12:55 PM,78.8,55.4,44,30.30,10.0,SE,9.2,-,N/A,,Clear,130,2013-08-24 16:55:00
1:15 PM,78.8,53.6,42,30.30,10.0,East,9.2,-,N/A,,Clear,100,2013-08-24 17:15:00
1:35 PM,78.8,55.4,44,30.30,10.0,East,5.8,-,N/A,,Clear,100,2013-08-24 17:35:00
1:55 PM,78.8,55.4,44,30.30,10.0,ESE,8.1,-,N/A,,Clear,110,2013-08-24 17:55:00
2:15 PM,78.8,53.6,42,30.30,10.0,East,8.1,-,N/A,,Clear,100,2013-08-24 18:15:00
2:35 PM,80.6,53.6,39,30.30,10.0,SE,3.5,16.1,N/A,,Clear,130,2013-08-24 18:35:00
2:55 PM,78.8,53.6,42,30.29,10.0,ESE,8.1,-,N/A,,Clear,120,2013-08-24 18:55:00
3:15 PM,78.8,53.6,42,30.29,10.0,ESE,5.8,-,N/A,,Clear,120,2013-08-24 19:15:00
3:35 PM,80.6,55.4,42,30.28,10.0,East,8.1,-,N/A,,Clear,100,2013-08-24 19:35:00
3:55 PM,80.6,53.6,39,30.28,10.0,ESE,6.9,-,N/A,,Clear,110,2013-08-24 19:55:00
4:15 PM,78.8,51.8,39,30.27,10.0,SSE,5.8,-,N/A,,Clear,150,2013-08-24 20:15:00
4:35 PM,80.6,51.8,37,30.27,10.0,East,4.6,-,N/A,,Clear,100,2013-08-24 20:35:00
4:55 PM,80.6,53.6,39,30.27,10.0,ESE,5.8,-,N/A,,Clear,110,2013-08-24 20:55:00
5:15 PM,80.6,53.6,39,30.26,10.0,SE,4.6,-,N/A,,Clear,140,2013-08-24 21:15:00
5:35 PM,80.6,53.6,39,30.26,10.0,Calm,Calm,-,N/A,,Clear,0,2013-08-24 21:35:00
5:55 PM,80.6,53.6,39,30.26,10.0,East,3.5,-,N/A,,Clear,100,2013-08-24 21:55:00
6:15 PM,78.8,53.6,42,30.26,10.0,SE,5.8,-,N/A,,Clear,140,2013-08-24 22:15:00
6:35 PM,78.8,53.6,42,30.26,10.0,SE,4.6,-,N/A,,Clear,140,2013-08-24 22:35:00
6:55 PM,78.8,53.6,42,30.26,10.0,SE,3.5,-,N/A,,Clear,130,2013-08-24 22:55:00
7:15 PM,77.0,53.6,44,30.26,10.0,Calm,Calm,-,N/A,,Clear,0,2013-08-24 23:15:00
7:35 PM,77.0,53.6,44,30.26,10.0,Calm,Calm,-,N/A,,Clear,0,2013-08-24 23:35:00
7:55 PM,73.4,59.0,61,30.26,10.0,Calm,Calm,-,N/A,,Clear,0,2013-08-24 23:55:00
8:15 PM,71.6,59.0,64,30.26,10.0,Calm,Calm,-,N/A,,Clear,0,2013-08-25 00:15:00
8:35 PM,69.8,59.0,68,30.26,10.0,Calm,Calm,-,N/A,,Clear,0,2013-08-25 00:35:00
8:55 PM,68.0,60.8,78,30.26,10.0,Calm,Calm,-,N/A,,Clear,0,2013-08-25 00:55:00
9:15 PM,64.4,59.0,83,30.27,10.0,Calm,Calm,-,N/A,,Clear,0,2013-08-25 01:15:00
9:35 PM,64.4,59.0,83,30.28,10.0,Calm,Calm,-,N/A,,Clear,0,2013-08-25 01:35:00
9:55 PM,62.6,59.0,88,30.28,10.0,Calm,Calm,-,N/A,,Clear,0,2013-08-25 01:55:00
10:15 PM,62.6,59.0,88,30.27,10.0,SE,3.5,-,N/A,,Clear,130,2013-08-25 02:15:00
10:35 PM,62.6,59.0,88,30.27,10.0,Calm,Calm,-,N/A,,Clear,0,2013-08-25 02:35:00
10:55 PM,60.8,57.2,88,30.28,10.0,ESE,3.5,-,N/A,,Clear,120,2013-08-25 02:55:00
11:15 PM,60.8,57.2,88,30.28,10.0,Calm,Calm,-,N/A,,Clear,0,2013-08-25 03:15:00
11:35 PM,60.8,57.2,88,30.27,10.0,Calm,Calm,-,N/A,,Clear,0,2013-08-25 03:35:00
11:55 PM,60.8,57.2,88,30.27,10.0,Calm,Calm,-,N/A,,Clear,0,2013-08-25 03:55:00